Adelphi, Maryland
Current Conditions -  °F | °C
As of 12:10 PM on Thursday 18 Dec 2014 (Local Time) from KCGS Reporting Station
Overcast Overcast  
Wind Chill: 34°   Ceiling: 3900
Heat Index: 39°   Visibility: 10mi
Dew Point: 23°   Wind: 7mph
Humidity: 52%   Direction: 340°NNW
Pressure: 30.14"   Gusts: 16mph
Location:  39°N, 76.97°W
Report Text: KCGS 181710Z AUTO 34006G14KT 10SM OVC039 04/M05 A3014 RMK AO1
Loading
Personal Weather Stations






























Interactive Weather Map New forecast layout! Learn more

10-Day Weather Forecast

Advertisements
Track Severe Weather on mobile